Terminal Aerodrome Forecast
Issued by NWS

Home | Current Version | Previous Version | Text Only | Print | Product List | Glossary On
Versions: 1 2 3 4 5 6 7 8 9 10 11 12 13 14
464
FTUS43 KLSX 190520
TAFUIN
TAF
KUIN 190520Z 1906/2006 13004KT P6SM SCT200
     FM191300 24004KT P6SM SCT200
     FM191600 27004KT P6SM SCT045
     FM192000 21004KT P6SM FEW060=

USA.gov is the U.S. government's official web portal to all federal, state and local government web resources and services.